Archival Weather

Dallas-Fort Worth Intl

Dallas-Fort Worth, Texas (KDFW)

Report from: Thursday, September 21, 2023 11:53 PM CDT
Current time: Sunday, February 25, 2024 3:24 PM CST

Current weather – Weather history – Daily summaries
Weather forecast

Temperature27.2°C (81.0°F)
Heat index29.0°C (84.1°F)
Dew point20.0°C (68.0°F)
Winds 10 kts (5.1 m/s, 11.5 mph) East-Southeast (110°)
Visibility10 mi. (16.1 km)
Clouds Few clouds 6,500 ft. (1,981 m)
Ceiling: Broken clouds 15,000 ft. (4,572 m)
Broken clouds 25,000 ft. (7,620 m)
Altimeter29.95 in.Hg (1014 mB)
Relative humidity65 %
Density altitude1,728 ft. (527 m)
Sea-level pressure101.3 kPa (1013 mB, 29.92 in.Hg)
Remarks Automated weather observing station with precipitation discriminator
Flight conditions Visual Meteorological Conditions
Raw dataKDFW 220453Z 11010KT 10SM FEW065 BKN150 BKN250 27/20 A2995 RMK AO2 SLP131 T02720200
An error has occurred. This application may no longer respond until reloaded. Reload 🗙